Dubai, UAE

10:25 PM +04 on June 28, 2017 (GMT +0400)
Sheikh Zayed Road | | Change Station

Elev 13 ft 25.22 °N, 55.28 °E | Updated 9 minutes ago

Clear
Clear
90.9 °F
Feels Like 104 °F
N
1.2
Wind Variable Wind from SSW
Gusts 3.1 mph

Today
High -- | Low -- °F
--% Chance of Precip.
Yesterday
High -- | Low -- °F
Precip. -- in
Pressure 29.39 in
Visibility -9999.0 miles
Clouds
Heat Index 104 °F
Dew Point 77 °F
Humidity 64%
Rainfall Not available.
Snow Depth Not available.
5:30 AM 7:12 PM
Waxing Crescent, 27% visible
METAR OMDB 281800Z 23003KT 180V290 CAVOK 35/26 Q0995 NOSIG
Pressure 29.39 in
Visibility -9999.0 miles
Clouds
Heat Index 104 °F
Dew Point 77 °F
Humidity 64%
Rainfall Not available.
Snow Depth Not available.
5:30 AM 7:12 PM
Waxing Crescent, 27% visible
METAR OMDB 281800Z 23003KT 180V290 CAVOK 35/26 Q0995 NOSIG

Get Severe Weather Alerts

Thanks for signing up!

Be on the lookout for a verification email in your inbox.

You'll start receiving the daily forecast at 6 AM.

×

10-Day Weather Forecast

No radar image for this location.
×

Almanac

Astronomy

Jun. 28, 2017 Rise Set
Actual Time
Civil Twilight
Nautical Twilight
Astronomical Twilight
Moon
Length of Visible Light
Length of Day
Tomorrow will be .
, % of the Moon is Illuminated

Today's Extremes

Country Highs Country Lows

Community

WunderPhotos

Category 6

Welcome to Category 6. This is the collective home for Weather Underground's featured writeups by Dr. Jeff Masters (right), Bob Henson (left), Chris Burt, and other regular contributors.

Nearby

Air Quality

  Air Quality AQ Index Pollutant
Not available.

Snow Depth

Station Depth Elevation

Earthquake Activity

City Distance Mag. Time & Date
Minimum magnitude displayed is 2.5.

Coastal Water Temperatures

Place Temperature

Stations

Nearby Weather Stations

Station Location Temp. Windchill Dew Point Humidity Wind Precip. Elev Updated Type